2016 Cux-Wetter.de -Die Nutzung der Wetterdaten nur mit ausdrcklicher Genehmigung
Wetterdaten: Woche 06.05.19 - 12.05.19 (KW19)
Datum Zeit Temp. A. Feuchte A. Luftdruck Regen Wind Richtung Sonnenschein Solar Taupunkt Windchill Windben
06.05.2019 00:00 7,1 C 82 % 1016,1 hPa 0,2 l/m 10,8 km/h (2 Bft) W 0,00 h 0 W/m 4,3 C 4,0 C 22,1 km/h (4 Bft)
06.05.2019 01:00 7,3 C 80 % 1015,6 hPa 0,0 l/m 14,2 km/h (3 Bft) W 0,00 h 0 W/m 4,1 C 2,3 C 26,7 km/h (4 Bft)
06.05.2019 02:00 7,4 C 78 % 1015,3 hPa 0,0 l/m 15,1 km/h (3 Bft) W 0,00 h 0 W/m 3,7 C 2,0 C 26,3 km/h (4 Bft)
06.05.2019 03:00 7,6 C 78 % 1015,0 hPa 0,0 l/m 15,1 km/h (3 Bft) W 0,00 h 0 W/m 4,0 C 2,2 C 26,4 km/h (4 Bft)
06.05.2019 04:00 7,9 C 78 % 1014,7 hPa 0,0 l/m 15,8 km/h (3 Bft) W 0,00 h 0 W/m 4,4 C 2,3 C 27,9 km/h (5 Bft)
06.05.2019 05:00 8,2 C 78 % 1014,3 hPa 0,0 l/m 15,9 km/h (3 Bft) W 0,00 h 6 W/m 4,5 C 2,5 C 27,7 km/h (5 Bft)
06.05.2019 06:00 7,5 C 82 % 1014,3 hPa 0,6 l/m 17,1 km/h (3 Bft) W 0,00 h 18 W/m 4,6 C 1,3 C 30,7 km/h (5 Bft)
06.05.2019 07:00 7,2 C 88 % 1014,3 hPa 0,2 l/m 12,4 km/h (2 Bft) W 0,00 h 64 W/m 5,3 C 3,1 C 23,1 km/h (4 Bft)
06.05.2019 08:00 7,4 C 87 % 1014,4 hPa 0,0 l/m 12,8 km/h (3 Bft) W 0,05 h 133 W/m 5,4 C 3,2 C 24,0 km/h (4 Bft)
06.05.2019 09:00 8,5 C 80 % 1014,5 hPa 0,0 l/m 14,7 km/h (3 Bft) W 0,20 h 241 W/m 5,3 C 3,6 C 25,8 km/h (4 Bft)
06.05.2019 10:00 8,5 C 82 % 1014,7 hPa 0,0 l/m 13,3 km/h (3 Bft) W 0,15 h 274 W/m 5,5 C 4,2 C 23,3 km/h (4 Bft)
06.05.2019 11:00 10,0 C 73 % 1014,8 hPa 0,0 l/m 15,7 km/h (3 Bft) W 0,85 h 598 W/m 5,3 C 4,9 C 29,1 km/h (5 Bft)
06.05.2019 12:00 10,4 C 67 % 1015,0 hPa 0,0 l/m 16,5 km/h (3 Bft) W 0,80 h 547 W/m 4,5 C 5,1 C 31,1 km/h (5 Bft)
06.05.2019 13:00 9,9 C 72 % 1015,2 hPa 0,0 l/m 14,2 km/h (3 Bft) W 0,60 h 460 W/m 5,1 C 5,5 C 25,4 km/h (4 Bft)
06.05.2019 14:00 10,2 C 67 % 1015,4 hPa 0,0 l/m 15,5 km/h (3 Bft) W 0,60 h 428 W/m 4,4 C 5,2 C 28,0 km/h (5 Bft)
06.05.2019 15:00 10,8 C 63 % 1015,4 hPa 0,0 l/m 14,5 km/h (3 Bft) W 0,80 h 514 W/m 4,1 C 6,4 C 26,8 km/h (4 Bft)
06.05.2019 16:00 9,9 C 64 % 1015,5 hPa 0,0 l/m 14,5 km/h (3 Bft) W 0,15 h 273 W/m 3,5 C 5,3 C 26,1 km/h (4 Bft)
06.05.2019 17:00 9,4 C 63 % 1015,5 hPa 0,0 l/m 13,1 km/h (3 Bft) W 0,00 h 181 W/m 2,8 C 5,3 C 23,4 km/h (4 Bft)
06.05.2019 18:00 8,9 C 67 % 1015,3 hPa 0,0 l/m 12,2 km/h (2 Bft) W 0,00 h 111 W/m 3,0 C 5,2 C 22,7 km/h (4 Bft)
06.05.2019 19:00 8,7 C 68 % 1015,4 hPa 0,0 l/m 11,7 km/h (2 Bft) W 0,10 h 81 W/m 3,1 C 5,3 C 21,6 km/h (4 Bft)
06.05.2019 20:00 8,2 C 71 % 1015,6 hPa 0,0 l/m 9,7 km/h (2 Bft) W 0,10 h 21 W/m 3,4 C 6,0 C 18,4 km/h (3 Bft)
06.05.2019 21:00 7,4 C 74 % 1015,9 hPa 0,0 l/m 8,6 km/h (2 Bft) W 0,00 h 0 W/m 3,0 C 5,8 C 16,0 km/h (3 Bft)
06.05.2019 22:00 6,9 C 76 % 1016,0 hPa 0,0 l/m 7,6 km/h (2 Bft) W 0,00 h 0 W/m 3,0 C 5,8 C 13,9 km/h (3 Bft)
06.05.2019 23:00 6,7 C 77 % 1016,0 hPa 0,0 l/m 7,6 km/h (2 Bft) W 0,00 h 0 W/m 3,0 C 5,7 C 14,2 km/h (3 Bft)
07.05.2019 00:00 6,9 C 75 % 1015,9 hPa 0,0 l/m 9,1 km/h (2 Bft) W 0,00 h 0 W/m 2,8 C 4,8 C 16,7 km/h (3 Bft)
07.05.2019 01:00 7,0 C 75 % 1015,8 hPa 0,0 l/m 9,2 km/h (2 Bft) W 0,00 h 0 W/m 2,9 C 4,9 C 18,2 km/h (3 Bft)
07.05.2019 02:00 6,9 C 74 % 1015,8 hPa 0,0 l/m 8,9 km/h (2 Bft) W 0,00 h 0 W/m 2,6 C 4,9 C 18,2 km/h (3 Bft)
07.05.2019 03:00 6,8 C 74 % 1015,9 hPa 0,0 l/m 8,3 km/h (2 Bft) W 0,00 h 0 W/m 2,4 C 5,3 C 16,7 km/h (3 Bft)
07.05.2019 04:00 6,7 C 72 % 1015,9 hPa 0,0 l/m 7,6 km/h (2 Bft) W 0,00 h 0 W/m 2,1 C 5,7 C 14,8 km/h (3 Bft)
07.05.2019 05:00 6,6 C 72 % 1016,0 hPa 0,0 l/m 6,9 km/h (2 Bft) W 0,00 h 6 W/m 2,0 C 5,9 C 14,9 km/h (3 Bft)
07.05.2019 06:00 6,6 C 74 % 1015,9 hPa 0,0 l/m 6,6 km/h (2 Bft) W-NW 0,05 h 31 W/m 2,3 C 6,0 C 13,9 km/h (3 Bft)
07.05.2019 07:00 7,4 C 72 % 1016,0 hPa 0,0 l/m 9,0 km/h (2 Bft) W 0,00 h 48 W/m 2,7 C 5,5 C 16,6 km/h (3 Bft)
07.05.2019 08:00 8,1 C 68 % 1016,3 hPa 0,0 l/m 9,3 km/h (2 Bft) W 0,05 h 96 W/m 2,5 C 6,0 C 18,4 km/h (3 Bft)
07.05.2019 09:00 9,2 C 63 % 1016,3 hPa 0,0 l/m 10,4 km/h (2 Bft) W 0,80 h 405 W/m 2,6 C 6,5 C 18,9 km/h (3 Bft)
07.05.2019 10:00 10,0 C 59 % 1016,3 hPa 0,0 l/m 10,4 km/h (2 Bft) W 0,75 h 530 W/m 2,3 C 7,4 C 19,6 km/h (3 Bft)
07.05.2019 11:00 10,8 C 57 % 1016,2 hPa 0,0 l/m 10,3 km/h (2 Bft) SW 0,95 h 739 W/m 2,5 C 8,3 C 18,0 km/h (3 Bft)
07.05.2019 12:00 10,8 C 56 % 1016,1 hPa 0,0 l/m 9,1 km/h (2 Bft) W 0,55 h 505 W/m 2,3 C 9,1 C 17,1 km/h (3 Bft)
07.05.2019 13:00 10,1 C 60 % 1015,9 hPa 0,0 l/m 10,1 km/h (2 Bft) SW 0,50 h 580 W/m 2,6 C 7,7 C 17,5 km/h (3 Bft)
07.05.2019 14:00 11,4 C 53 % 1015,6 hPa 0,0 l/m 8,4 km/h (2 Bft) W 0,95 h 784 W/m 2,1 C 10,1 C 15,5 km/h (3 Bft)
07.05.2019 15:00 11,7 C 54 % 1015,2 hPa 0,0 l/m 7,7 km/h (2 Bft) W 1,00 h 716 W/m 2,5 C 10,7 C 14,1 km/h (3 Bft)
07.05.2019 16:00 11,5 C 55 % 1014,8 hPa 0,0 l/m 8,1 km/h (2 Bft) W 1,00 h 593 W/m 2,7 C 10,3 C 13,7 km/h (3 Bft)
07.05.2019 17:00 11,0 C 57 % 1014,3 hPa 0,0 l/m 5,5 km/h (2 Bft) W 0,95 h 421 W/m 2,9 C 10,8 C 10,6 km/h (2 Bft)
07.05.2019 18:00 10,3 C 61 % 1013,7 hPa 0,0 l/m 4,0 km/h (1 Bft) W-NW 0,45 h 176 W/m 3,2 C 10,3 C 8,2 km/h (2 Bft)
07.05.2019 19:00 9,1 C 65 % 1013,3 hPa 0,0 l/m 2,2 km/h (1 Bft) W-NW 0,00 h 49 W/m 2,9 C 9,1 C 5,2 km/h (1 Bft)
07.05.2019 20:00 8,3 C 71 % 1012,9 hPa 0,0 l/m 1,6 km/h (1 Bft) W-NW 0,00 h 14 W/m 3,3 C 8,3 C 3,8 km/h (1 Bft)
07.05.2019 21:00 7,9 C 73 % 1012,7 hPa 0,0 l/m 1,4 km/h (1 Bft) W-NW 0,00 h 0 W/m 3,4 C 7,9 C 3,7 km/h (1 Bft)
07.05.2019 22:00 7,7 C 80 % 1012,5 hPa 0,4 l/m 1,2 km/h (1 Bft) W-NW 0,00 h 0 W/m 4,5 C 7,7 C 2,9 km/h (1 Bft)
07.05.2019 23:00 6,9 C 90 % 1012,1 hPa 0,2 l/m 0,6 km/h (0 Bft) W-NW 0,00 h 0 W/m 5,4 C 6,9 C 2,2 km/h (1 Bft)
08.05.2019 00:00 6,1 C 92 % 1011,3 hPa 0,0 l/m 0,6 km/h (0 Bft) W-NW 0,00 h 0 W/m 4,9 C 6,1 C 2,8 km/h (1 Bft)
08.05.2019 01:00 5,6 C 93 % 1010,6 hPa 0,0 l/m 2,0 km/h (1 Bft) W 0,00 h 0 W/m 4,5 C 5,6 C 5,0 km/h (1 Bft)
08.05.2019 02:00 5,7 C 92 % 1010,0 hPa 0,0 l/m 3,4 km/h (1 Bft) S 0,00 h 0 W/m 4,4 C 5,7 C 7,5 km/h (2 Bft)
08.05.2019 03:00 5,5 C 91 % 1009,5 hPa 0,0 l/m 4,3 km/h (1 Bft) S-SO 0,00 h 0 W/m 4,1 C 5,5 C 9,1 km/h (2 Bft)
08.05.2019 04:00 4,9 C 92 % 1008,9 hPa 0,0 l/m 3,5 km/h (1 Bft) S-SO 0,00 h 0 W/m 3,7 C 4,9 C 8,0 km/h (2 Bft)
08.05.2019 05:00 4,5 C 93 % 1008,3 hPa 0,0 l/m 3,1 km/h (1 Bft) S-SO 0,00 h 7 W/m 3,5 C 4,5 C 7,9 km/h (2 Bft)
08.05.2019 06:00 4,3 C 94 % 1007,7 hPa 0,0 l/m 4,1 km/h (1 Bft) S-SO 0,00 h 33 W/m 3,4 C 4,3 C 8,6 km/h (2 Bft)
08.05.2019 07:00 5,4 C 92 % 1007,2 hPa 0,0 l/m 4,9 km/h (1 Bft) SO 0,00 h 81 W/m 4,2 C 5,3 C 9,5 km/h (2 Bft)
08.05.2019 08:00 7,3 C 87 % 1006,5 hPa 0,0 l/m 3,8 km/h (1 Bft) SO 0,00 h 158 W/m 5,3 C 7,3 C 7,9 km/h (2 Bft)
08.05.2019 09:00 9,8 C 80 % 1005,8 hPa 0,0 l/m 4,1 km/h (1 Bft) SO 0,15 h 275 W/m 6,4 C 9,8 C 9,2 km/h (2 Bft)
08.05.2019 10:00 11,5 C 73 % 1004,9 hPa 0,0 l/m 4,7 km/h (1 Bft) O 0,20 h 316 W/m 6,8 C 11,4 C 11,4 km/h (2 Bft)
08.05.2019 11:00 12,5 C 69 % 1003,9 hPa 0,0 l/m 4,6 km/h (1 Bft) O-SO 0,15 h 324 W/m 7,0 C 12,5 C 11,5 km/h (2 Bft)
08.05.2019 12:00 13,9 C 62 % 1002,7 hPa 0,0 l/m 5,8 km/h (2 Bft) O-SO 0,60 h 457 W/m 6,7 C 13,6 C 13,9 km/h (3 Bft)
08.05.2019 13:00 14,7 C 62 % 1001,5 hPa 0,0 l/m 6,9 km/h (2 Bft) NO 0,65 h 458 W/m 7,4 C 14,2 C 17,2 km/h (3 Bft)
08.05.2019 14:00 14,4 C 60 % 1000,6 hPa 0,0 l/m 6,0 km/h (2 Bft) O-NO 0,00 h 284 W/m 6,8 C 14,3 C 15,5 km/h (3 Bft)
08.05.2019 15:00 13,2 C 64 % 999,4 hPa 0,0 l/m 8,5 km/h (2 Bft) SO 0,00 h 216 W/m 6,6 C 11,9 C 18,5 km/h (3 Bft)
08.05.2019 16:00 13,2 C 65 % 998,6 hPa 0,0 l/m 6,3 km/h (2 Bft) SO 0,00 h 100 W/m 6,7 C 12,8 C 15,3 km/h (3 Bft)
08.05.2019 17:00 12,8 C 67 % 997,3 hPa 0,0 l/m 9,2 km/h (2 Bft) SO 0,00 h 97 W/m 6,9 C 11,1 C 20,3 km/h (4 Bft)
08.05.2019 18:00 12,4 C 70 % 996,4 hPa 0,0 l/m 8,8 km/h (2 Bft) O-SO 0,00 h 84 W/m 7,2 C 11,0 C 18,1 km/h (3 Bft)
08.05.2019 19:00 12,1 C 75 % 995,6 hPa 0,0 l/m 7,3 km/h (2 Bft) SO 0,00 h 40 W/m 7,8 C 11,3 C 15,6 km/h (3 Bft)
08.05.2019 20:00 10,9 C 86 % 995,2 hPa 0,4 l/m 4,4 km/h (1 Bft) SO 0,00 h 10 W/m 8,7 C 10,9 C 11,2 km/h (2 Bft)
08.05.2019 21:00 10,4 C 91 % 994,8 hPa 0,8 l/m 4,2 km/h (1 Bft) SO 0,00 h 0 W/m 9,0 C 10,4 C 10,7 km/h (2 Bft)
08.05.2019 22:00 10,3 C 94 % 994,5 hPa 2,2 l/m 6,1 km/h (2 Bft) SO 0,00 h 0 W/m 9,3 C 10,0 C 13,9 km/h (3 Bft)
08.05.2019 23:00 10,3 C 95 % 994,1 hPa 1,8 l/m 6,7 km/h (2 Bft) SO 0,00 h 0 W/m 9,5 C 9,8 C 13,3 km/h (3 Bft)
09.05.2019 00:00 10,4 C 95 % 993,8 hPa 0,6 l/m 4,8 km/h (1 Bft) S-SO 0,00 h 0 W/m 9,7 C 10,4 C 9,7 km/h (2 Bft)
09.05.2019 01:00 10,4 C 96 % 993,6 hPa 0,0 l/m 5,3 km/h (1 Bft) S 0,00 h 0 W/m 9,8 C 10,2 C 9,9 km/h (2 Bft)
09.05.2019 02:00 10,0 C 96 % 993,7 hPa 0,0 l/m 6,9 km/h (2 Bft) S 0,00 h 0 W/m 9,4 C 9,6 C 12,7 km/h (3 Bft)
09.05.2019 03:00 9,3 C 96 % 993,8 hPa 0,0 l/m 5,0 km/h (1 Bft) S 0,00 h 0 W/m 8,7 C 9,2 C 8,6 km/h (2 Bft)
09.05.2019 04:00 8,8 C 96 % 994,0 hPa 0,0 l/m 4,2 km/h (1 Bft) S 0,00 h 0 W/m 8,2 C 8,8 C 7,2 km/h (2 Bft)
09.05.2019 05:00 8,3 C 96 % 993,9 hPa 0,0 l/m 3,9 km/h (1 Bft) S 0,00 h 8 W/m 7,7 C 8,3 C 6,6 km/h (2 Bft)
09.05.2019 06:00 8,5 C 97 % 994,2 hPa 0,0 l/m 5,8 km/h (2 Bft) S 0,00 h 22 W/m 8,0 C 8,3 C 8,8 km/h (2 Bft)
09.05.2019 07:00 9,1 C 97 % 994,5 hPa 0,0 l/m 7,8 km/h (2 Bft) S 0,00 h 46 W/m 8,7 C 8,1 C 13,6 km/h (3 Bft)
09.05.2019 08:00 9,8 C 97 % 994,8 hPa 0,0 l/m 8,0 km/h (2 Bft) S 0,05 h 110 W/m 9,4 C 8,7 C 14,7 km/h (3 Bft)
09.05.2019 09:00 11,4 C 95 % 995,1 hPa 0,2 l/m 9,6 km/h (2 Bft) S 0,80 h 363 W/m 10,7 C 9,4 C 16,7 km/h (3 Bft)
09.05.2019 10:00 13,6 C 85 % 995,4 hPa 0,0 l/m 10,3 km/h (2 Bft) SW 0,95 h 576 W/m 11,1 C 11,4 C 17,8 km/h (3 Bft)
09.05.2019 11:00 15,1 C 73 % 995,5 hPa 0,0 l/m 11,0 km/h (2 Bft) S 0,70 h 597 W/m 10,3 C 12,9 C 19,5 km/h (3 Bft)
09.05.2019 12:00 16,3 C 66 % 995,6 hPa 0,0 l/m 11,2 km/h (2 Bft) S 0,55 h 552 W/m 9,8 C 14,1 C 19,1 km/h (3 Bft)
09.05.2019 13:00 17,0 C 62 % 995,8 hPa 0,0 l/m 8,7 km/h (2 Bft) S 0,50 h 594 W/m 9,7 C 15,9 C 15,1 km/h (3 Bft)
09.05.2019 14:00 17,5 C 57 % 996,0 hPa 0,0 l/m 10,3 km/h (2 Bft) S 0,30 h 386 W/m 8,9 C 15,8 C 17,3 km/h (3 Bft)
09.05.2019 15:00 17,5 C 56 % 996,2 hPa 0,0 l/m 9,0 km/h (2 Bft) S-SW 0,20 h 280 W/m 8,6 C 16,4 C 15,5 km/h (3 Bft)
09.05.2019 16:00 18,0 C 57 % 996,4 hPa 0,0 l/m 8,3 km/h (2 Bft) S 0,15 h 300 W/m 9,3 C 17,1 C 15,0 km/h (3 Bft)
09.05.2019 17:00 17,8 C 57 % 996,6 hPa 0,0 l/m 8,4 km/h (2 Bft) S 0,00 h 165 W/m 9,1 C 16,9 C 15,0 km/h (3 Bft)
09.05.2019 18:00 17,0 C 59 % 996,7 hPa 0,0 l/m 7,8 km/h (2 Bft) S 0,00 h 118 W/m 9,0 C 16,3 C 13,4 km/h (3 Bft)
09.05.2019 19:00 16,5 C 61 % 997,0 hPa 0,0 l/m 6,2 km/h (2 Bft) S 0,00 h 64 W/m 9,0 C 16,2 C 10,8 km/h (2 Bft)
09.05.2019 20:00 15,6 C 67 % 997,6 hPa 0,0 l/m 4,2 km/h (1 Bft) W 0,00 h 12 W/m 9,5 C 15,5 C 8,0 km/h (2 Bft)
09.05.2019 21:00 13,8 C 76 % 998,3 hPa 0,6 l/m 5,9 km/h (2 Bft) W 0,00 h 0 W/m 9,7 C 13,6 C 11,4 km/h (2 Bft)
09.05.2019 22:00 12,4 C 85 % 998,9 hPa 0,0 l/m 2,8 km/h (1 Bft) NW 0,00 h 0 W/m 9,9 C 12,4 C 5,0 km/h (1 Bft)
09.05.2019 23:00 11,4 C 88 % 999,2 hPa 0,2 l/m 0,0 km/h (0 Bft) N 0,00 h 0 W/m 9,6 C 11,4 C 0,2 km/h (0 Bft)
10.05.2019 00:00 11,0 C 91 % 999,7 hPa 0,0 l/m 0,0 km/h (0 Bft) NW 0,00 h 0 W/m 9,6 C 11,0 C 0,0 km/h (0 Bft)
10.05.2019 01:00 10,8 C 91 % 1000,0 hPa 0,0 l/m 1,9 km/h (1 Bft) NW 0,00 h 0 W/m 9,4 C 10,8 C 3,8 km/h (1 Bft)
10.05.2019 02:00 10,3 C 92 % 999,9 hPa 0,0 l/m 1,6 km/h (1 Bft) NW 0,00 h 0 W/m 9,1 C 10,3 C 3,3 km/h (1 Bft)
10.05.2019 03:00 10,2 C 93 % 1000,1 hPa 0,0 l/m 8,2 km/h (2 Bft) W 0,00 h 0 W/m 9,1 C 8,8 C 14,7 km/h (3 Bft)
10.05.2019 04:00 10,1 C 93 % 1000,5 hPa 0,0 l/m 6,0 km/h (2 Bft) W 0,00 h 0 W/m 9,0 C 9,8 C 10,9 km/h (2 Bft)
10.05.2019 05:00 10,0 C 93 % 1001,0 hPa 0,0 l/m 6,2 km/h (2 Bft) W-SW 0,00 h 6 W/m 8,9 C 9,6 C 12,0 km/h (2 Bft)
10.05.2019 06:00 10,0 C 92 % 1001,6 hPa 0,4 l/m 8,4 km/h (2 Bft) W 0,00 h 9 W/m 8,8 C 8,6 C 15,8 km/h (3 Bft)
10.05.2019 07:00 9,7 C 92 % 1002,1 hPa 0,2 l/m 5,6 km/h (2 Bft) W 0,00 h 34 W/m 8,5 C 9,5 C 11,3 km/h (2 Bft)
10.05.2019 08:00 9,7 C 92 % 1002,7 hPa 0,0 l/m 7,8 km/h (2 Bft) W-NW 0,00 h 102 W/m 8,5 C 8,7 C 16,4 km/h (3 Bft)
10.05.2019 09:00 9,9 C 92 % 1003,3 hPa 0,4 l/m 7,5 km/h (2 Bft) W 0,00 h 107 W/m 8,6 C 9,0 C 15,3 km/h (3 Bft)
10.05.2019 10:00 9,9 C 91 % 1004,2 hPa 0,0 l/m 7,9 km/h (2 Bft) W 0,00 h 108 W/m 8,5 C 8,7 C 15,7 km/h (3 Bft)
10.05.2019 11:00 9,9 C 90 % 1005,3 hPa 0,0 l/m 9,5 km/h (2 Bft) W 0,00 h 209 W/m 8,4 C 7,8 C 19,1 km/h (3 Bft)
10.05.2019 12:00 11,0 C 81 % 1005,9 hPa 0,2 l/m 12,7 km/h (3 Bft) W 0,05 h 330 W/m 7,9 C 7,4 C 24,0 km/h (4 Bft)
10.05.2019 13:00 11,1 C 78 % 1006,6 hPa 0,0 l/m 12,4 km/h (2 Bft) W 0,00 h 277 W/m 7,4 C 7,7 C 23,4 km/h (4 Bft)
10.05.2019 14:00 11,4 C 75 % 1007,5 hPa 0,0 l/m 11,6 km/h (2 Bft) W 0,00 h 307 W/m 7,2 C 8,3 C 21,3 km/h (4 Bft)
10.05.2019 15:00 12,1 C 73 % 1008,3 hPa 0,0 l/m 12,6 km/h (3 Bft) W 0,75 h 585 W/m 7,3 C 8,7 C 23,6 km/h (4 Bft)
10.05.2019 16:00 12,5 C 69 % 1008,8 hPa 0,0 l/m 10,8 km/h (2 Bft) W 0,60 h 512 W/m 6,9 C 10,0 C 20,3 km/h (4 Bft)
10.05.2019 17:00 11,7 C 70 % 1009,4 hPa 0,0 l/m 11,0 km/h (2 Bft) W 0,50 h 349 W/m 6,3 C 9,0 C 20,2 km/h (4 Bft)
10.05.2019 18:00 11,4 C 66 % 1009,8 hPa 0,0 l/m 9,7 km/h (2 Bft) W 0,40 h 188 W/m 5,3 C 9,4 C 18,6 km/h (3 Bft)
10.05.2019 19:00 11,0 C 69 % 1010,1 hPa 0,0 l/m 7,5 km/h (2 Bft) W 0,00 h 48 W/m 5,6 C 10,0 C 15,5 km/h (3 Bft)
10.05.2019 20:00 10,0 C 72 % 1010,2 hPa 0,0 l/m 6,4 km/h (2 Bft) NW 0,05 h 22 W/m 5,2 C 9,7 C 13,6 km/h (3 Bft)
10.05.2019 21:00 9,0 C 73 % 1010,6 hPa 0,0 l/m 4,9 km/h (1 Bft) W-NW 0,00 h 0 W/m 4,4 C 8,9 C 10,7 km/h (2 Bft)
10.05.2019 22:00 8,3 C 75 % 1011,0 hPa 0,0 l/m 2,8 km/h (1 Bft) W-NW 0,00 h 0 W/m 4,1 C 8,3 C 6,4 km/h (2 Bft)
10.05.2019 23:00 7,3 C 77 % 1011,3 hPa 0,0 l/m 0,9 km/h (0 Bft) W-NW 0,00 h 0 W/m 3,6 C 7,3 C 2,6 km/h (1 Bft)
11.05.2019 00:00 5,9 C 79 % 1011,4 hPa 0,0 l/m 0,0 km/h (0 Bft) N 0,00 h 0 W/m 2,6 C 5,9 C 0,0 km/h (0 Bft)
11.05.2019 01:00 4,8 C 82 % 1011,4 hPa 0,0 l/m 0,0 km/h (0 Bft) N 0,00 h 0 W/m 2,1 C 4,8 C 0,0 km/h (0 Bft)
11.05.2019 02:00 3,8 C 85 % 1011,5 hPa 0,0 l/m 0,0 km/h (0 Bft) N 0,00 h 0 W/m 1,5 C 3,8 C 0,0 km/h (0 Bft)
11.05.2019 03:00 3,2 C 86 % 1011,3 hPa 0,0 l/m 0,0 km/h (0 Bft) N 0,00 h 0 W/m 1,2 C 3,2 C 0,0 km/h (0 Bft)
11.05.2019 04:00 2,9 C 88 % 1011,4 hPa 0,0 l/m 0,0 km/h (0 Bft) N 0,00 h 0 W/m 1,2 C 2,9 C 0,0 km/h (0 Bft)
11.05.2019 05:00 2,5 C 89 % 1011,7 hPa 0,0 l/m 0,0 km/h (0 Bft) N 0,00 h 8 W/m 0,9 C 2,5 C 0,0 km/h (0 Bft)
11.05.2019 06:00 2,5 C 90 % 1012,1 hPa 0,0 l/m 0,1 km/h (0 Bft) N 0,00 h 21 W/m 1,1 C 2,5 C 0,5 km/h (0 Bft)
11.05.2019 07:00 4,2 C 93 % 1012,3 hPa 0,0 l/m 1,1 km/h (1 Bft) NO 0,00 h 25 W/m 3,1 C 4,2 C 5,0 km/h (1 Bft)
11.05.2019 08:00 6,1 C 93 % 1012,9 hPa 0,0 l/m 2,9 km/h (1 Bft) NO 0,15 h 114 W/m 5,0 C 6,1 C 7,5 km/h (2 Bft)
11.05.2019 09:00 9,4 C 79 % 1013,3 hPa 0,0 l/m 4,1 km/h (1 Bft) N 1,00 h 470 W/m 5,8 C 9,4 C 10,1 km/h (2 Bft)
11.05.2019 10:00 11,3 C 63 % 1013,6 hPa 0,0 l/m 5,1 km/h (1 Bft) N-NO 0,95 h 617 W/m 4,6 C 11,2 C 10,9 km/h (2 Bft)
11.05.2019 11:00 12,4 C 60 % 1014,1 hPa 0,0 l/m 6,0 km/h (2 Bft) N-NO 0,70 h 706 W/m 4,8 C 12,1 C 12,9 km/h (3 Bft)
11.05.2019 12:00 13,2 C 58 % 1014,5 hPa 0,0 l/m 8,5 km/h (2 Bft) N-NW 0,90 h 734 W/m 5,0 C 11,9 C 17,9 km/h (3 Bft)
11.05.2019 13:00 13,8 C 57 % 1014,8 hPa 0,0 l/m 10,7 km/h (2 Bft) N-NW 1,00 h 834 W/m 5,4 C 11,5 C 21,4 km/h (4 Bft)
11.05.2019 14:00 14,0 C 60 % 1015,1 hPa 0,0 l/m 15,8 km/h (3 Bft) N 1,00 h 796 W/m 6,3 C 9,7 C 27,3 km/h (5 Bft)
11.05.2019 15:00 13,6 C 62 % 1015,8 hPa 0,0 l/m 17,7 km/h (3 Bft) N-NW 1,00 h 723 W/m 6,5 C 8,7 C 30,2 km/h (5 Bft)
11.05.2019 16:00 13,1 C 63 % 1016,5 hPa 0,0 l/m 19,7 km/h (3 Bft) NW 1,00 h 613 W/m 6,2 C 7,4 C 34,0 km/h (5 Bft)
11.05.2019 17:00 12,4 C 65 % 1017,4 hPa 0,0 l/m 19,4 km/h (3 Bft) NW 1,00 h 475 W/m 6,0 C 6,6 C 32,2 km/h (5 Bft)
11.05.2019 18:00 11,9 C 69 % 1018,2 hPa 0,0 l/m 19,3 km/h (3 Bft) NW 0,50 h 191 W/m 6,3 C 5,9 C 31,6 km/h (5 Bft)
11.05.2019 19:00 10,8 C 72 % 1018,9 hPa 0,0 l/m 20,8 km/h (4 Bft) N 0,00 h 30 W/m 6,0 C 4,1 C 35,2 km/h (5 Bft)
11.05.2019 20:00 9,9 C 74 % 1019,7 hPa 0,0 l/m 19,3 km/h (3 Bft) N-NW 0,00 h 14 W/m 5,4 C 3,5 C 32,9 km/h (5 Bft)
11.05.2019 21:00 9,4 C 75 % 1020,8 hPa 0,0 l/m 16,5 km/h (3 Bft) N 0,00 h 5 W/m 5,1 C 3,8 C 28,4 km/h (5 Bft)
11.05.2019 22:00 9,1 C 76 % 1021,6 hPa 0,0 l/m 11,7 km/h (2 Bft) NW 0,00 h 0 W/m 5,0 C 5,6 C 23,2 km/h (4 Bft)
11.05.2019 23:00 8,9 C 75 % 1022,2 hPa 0,0 l/m 14,1 km/h (3 Bft) N-NW 0,00 h 0 W/m 4,8 C 4,2 C 24,8 km/h (4 Bft)
12.05.2019 00:00 8,8 C 75 % 1022,9 hPa 0,0 l/m 12,8 km/h (3 Bft) N-NW 0,00 h 0 W/m 4,6 C 4,7 C 22,7 km/h (4 Bft)
12.05.2019 01:00 8,6 C 75 % 1023,4 hPa 0,0 l/m 13,3 km/h (3 Bft) NW 0,00 h 0 W/m 4,4 C 4,3 C 24,4 km/h (4 Bft)
12.05.2019 02:00 8,6 C 75 % 1023,8 hPa 0,0 l/m 14,1 km/h (3 Bft) NW 0,00 h 0 W/m 4,3 C 3,8 C 23,3 km/h (4 Bft)
12.05.2019 03:00 8,6 C 75 % 1024,4 hPa 0,0 l/m 14,2 km/h (3 Bft) NW 0,00 h 0 W/m 4,4 C 3,9 C 24,0 km/h (4 Bft)
12.05.2019 04:00 8,6 C 74 % 1025,1 hPa 0,0 l/m 14,9 km/h (3 Bft) NW 0,00 h 0 W/m 4,2 C 3,5 C 25,0 km/h (4 Bft)
12.05.2019 05:00 8,8 C 76 % 1025,7 hPa 0,0 l/m 15,0 km/h (3 Bft) NW 0,00 h 10 W/m 4,7 C 3,7 C 24,9 km/h (4 Bft)
12.05.2019 06:00 8,9 C 76 % 1026,5 hPa 0,0 l/m 14,6 km/h (3 Bft) NW 0,10 h 38 W/m 4,9 C 4,0 C 24,8 km/h (4 Bft)
12.05.2019 07:00 9,1 C 74 % 1027,2 hPa 0,0 l/m 14,7 km/h (3 Bft) N-NW 0,00 h 52 W/m 4,8 C 4,2 C 25,2 km/h (4 Bft)
12.05.2019 08:00 9,4 C 73 % 1028,3 hPa 0,0 l/m 14,1 km/h (3 Bft) N-NW 0,05 h 116 W/m 4,9 C 4,8 C 24,1 km/h (4 Bft)
12.05.2019 09:00 10,5 C 70 % 1029,0 hPa 0,0 l/m 14,2 km/h (3 Bft) NW 0,70 h 399 W/m 5,2 C 6,1 C 24,5 km/h (4 Bft)
12.05.2019 10:00 11,4 C 66 % 1029,6 hPa 0,0 l/m 13,7 km/h (3 Bft) NW 0,70 h 571 W/m 5,4 C 7,4 C 23,1 km/h (4 Bft)
12.05.2019 11:00 12,2 C 64 % 1030,3 hPa 0,0 l/m 13,4 km/h (3 Bft) N-NW 0,80 h 684 W/m 5,6 C 8,5 C 23,2 km/h (4 Bft)
12.05.2019 12:00 13,1 C 62 % 1030,8 hPa 0,0 l/m 13,1 km/h (3 Bft) NW 0,95 h 730 W/m 5,8 C 9,6 C 24,3 km/h (4 Bft)
12.05.2019 13:00 13,0 C 62 % 1031,3 hPa 0,0 l/m 14,1 km/h (3 Bft) NW 0,85 h 812 W/m 5,9 C 9,1 C 24,8 km/h (4 Bft)
12.05.2019 14:00 13,6 C 62 % 1031,9 hPa 0,0 l/m 13,5 km/h (3 Bft) N-NW 0,90 h 853 W/m 6,3 C 10,0 C 25,5 km/h (4 Bft)
12.05.2019 15:00 13,5 C 62 % 1032,5 hPa 0,0 l/m 14,8 km/h (3 Bft) N-NW 1,00 h 761 W/m 6,3 C 9,5 C 25,7 km/h (4 Bft)
12.05.2019 16:00 13,0 C 64 % 1033,0 hPa 0,0 l/m 16,5 km/h (3 Bft) NW 1,00 h 623 W/m 6,4 C 8,3 C 28,6 km/h (5 Bft)
12.05.2019 17:00 12,4 C 67 % 1033,3 hPa 0,0 l/m 16,8 km/h (3 Bft) NW 1,00 h 486 W/m 6,4 C 7,5 C 27,7 km/h (5 Bft)
12.05.2019 18:00 11,9 C 67 % 1033,9 hPa 0,0 l/m 15,5 km/h (3 Bft) NW 0,50 h 194 W/m 5,9 C 7,2 C 26,7 km/h (4 Bft)
12.05.2019 19:00 10,9 C 68 % 1034,3 hPa 0,0 l/m 15,9 km/h (3 Bft) N 0,00 h 31 W/m 5,2 C 5,9 C 26,6 km/h (4 Bft)
12.05.2019 20:00 9,9 C 72 % 1034,8 hPa 0,0 l/m 15,4 km/h (3 Bft) NW 0,00 h 16 W/m 5,2 C 4,9 C 26,2 km/h (4 Bft)
12.05.2019 21:00 9,5 C 75 % 1035,0 hPa 0,0 l/m 14,2 km/h (3 Bft) NW 0,00 h 6 W/m 5,2 C 4,9 C 25,1 km/h (4 Bft)
12.05.2019 22:00 9,1 C 76 % 1035,3 hPa 0,0 l/m 14,5 km/h (3 Bft) NW 0,00 h 0 W/m 5,1 C 4,3 C 28,2 km/h (5 Bft)
12.05.2019 23:00 8,9 C 76 % 1035,6 hPa 0,0 l/m 13,7 km/h (3 Bft) NW 0,00 h 0 W/m 5,0 C 4,4 C 27,8 km/h (5 Bft)
Min-Datum _ 11.05.19 07.05.19 09.05.19 - 07.05.19 - - - 11.05.19 06.05.19 07.05.19
_ Min-Zeit 05:36 14:27 01:18 - 22:45 - - - 05:36 06:18 22:45
Minimum _ 2,4 C 50 % 993,5 hPa - 0,0 km/h (0 Bft) - - - 0,8 C -0,5 C 0,0 km/h (0 Bft)
Max-Datum _ 09.05.19 09.05.19 12.05.19 08.05.19 11.05.19 - 11.05.19 12.05.19 09.05.19 09.05.19 06.05.19
_ Max-Zeit 16:54 06:12 23:45 22:03 16:09 - 10:54 14:15 10:09 16:21 06:09
Maximum _ 18,3 C 97 % 1035,8 hPa 2,2 l/m 24,5 km/h
NW (4 Bft)
- 0,10 h 1076 W/m 11,5 C 18,1 C 43,5 km/h
W (6 Bft)
Durchschnitt _ 9,9 C 76 % 1011,3 hPa #9,6 l/m 9,0 km/h (2 Bft) W #38:27 h 287 W/m 5,6 C 7,8 C 16,7 km/h (3 Bft)
2019 Cux-Wetter.de -Die Nutzung der Wetterdaten nur mit ausdrcklicher Genehmigung